Time;durP1;ratioP1;P1;durP2;ratioP2;P2;SDS_P1;SDS_P2;PMS_P1;PMS_P2;Temp;Humidity;BMP_temperature;BMP_pressure;BME280_temperature;BME280_humidity;BME280_pressure;Samples;Min_cycle;Max_cycle;Signal;HPM_P1;HPM_P2
2023/04/03 05:00:19;;;;;;;;;10.33;8.00;;;;;11.16;56.80;7744.69;5914397;23;46607;-88
2023/04/03 05:02:45;;;;;;;;;8.00;8.00;;;;;10.88;56.97;7739.78;4934018;28;45535;-86
2023/04/03 05:05:10;;;;;;;;;12.33;10.67;;;;;11.21;56.63;8079.06;4937183;28;45443;-88
2023/04/03 05:07:35;;;;;;;;;8.67;8.33;;;;;11.21;56.77;8412.66;4937589;28;45322;-86
2023/04/03 05:10:02;;;;;;;;;10.67;8.33;;;;;10.86;56.31;8739.56;4938766;28;47152;-87
2023/04/03 05:12:27;;;;;;;;;9.00;8.00;;;;;11.00;56.25;9075.84;4938892;28;45473;-85
2023/04/03 05:14:53;;;;;;;;;7.00;7.00;;;;;11.08;56.15;9077.34;4937759;28;45384;-84
2023/04/03 05:17:18;;;;;;;;;6.00;6.00;;;;;11.06;56.24;9410.56;4938047;28;45330;-84
2023/04/03 05:19:43;;;;;;;;;5.33;5.00;;;;;11.14;55.77;9746.00;4933667;28;49250;-84
2023/04/03 05:22:09;;;;;;;;;6.33;6.33;;;;;11.12;56.18;10079.28;4940157;28;45456;-83
2023/04/03 05:24:34;;;;;;;;;7.00;7.00;;;;;11.07;55.84;10078.19;4939414;28;45733;-84
2023/04/03 05:27:00;;;;;;;;;8.00;8.00;;;;;10.87;55.75;10407.53;4941777;28;45369;-85
2023/04/03 05:29:25;;;;;;;;;7.67;7.00;;;;;10.93;55.87;10742.41;4941267;28;47320;-84
2023/04/03 05:31:50;;;;;;;;;8.33;6.00;;;;;11.11;55.87;11080.19;4941351;28;45478;-85
2023/04/03 05:34:16;;;;;;;;;6.00;6.00;;;;;10.75;55.35;11405.62;4940063;28;45858;-85
2023/04/03 05:36:42;;;;;;;;;8.33;8.33;;;;;11.10;55.74;11413.75;4938937;28;45449;-85
2023/04/03 05:39:08;;;;;;;;;10.33;7.00;;;;;11.08;55.11;12414.81;4940124;28;45849;-83
2023/04/03 05:41:33;;;;;;;;;7.67;7.67;;;;;11.02;54.93;12747.28;4940519;28;45429;-86
2023/04/03 05:44:01;;;;;;;;;6.00;6.00;;;;;10.75;54.94;13074.13;4940219;28;46453;-89
2023/04/03 05:46:26;;;;;;;;;10.00;8.00;;;;;11.07;54.70;13416.34;4937147;28;45394;-92
2023/04/03 05:49:15;;;;;;;;;;;;;;;;;;;;;
2023/04/03 05:51:53;;;;;;;;;8.00;7.00;;;;;9.56;54.89;13376.38;4936536;28;72344;-91
2023/04/03 05:54:23;;;;;;;;;6.00;6.00;;;;;10.45;54.64;14067.34;4938797;28;45484;-86
2023/04/03 05:56:49;;;;;;;;;7.00;6.67;;;;;11.03;54.65;14417.38;4940846;28;45500;-89
2023/04/03 05:59:15;;;;;;;;;11.00;9.67;;;;;9.83;54.17;14383.47;4940510;28;46379;-83
2023/04/03 06:01:40;;;;;;;;;7.33;7.33;;;;;10.50;54.66;14736.13;4938539;28;45530;-87
2023/04/03 06:07:00;;;;;;;;;9.67;9.00;;;;;10.77;54.41;15077.88;4908347;28;45529;-87
2023/04/03 06:12:33;;;;;;;;;9.00;9.00;;;;;9.90;54.15;15719.44;4868798;29;45548;-86
2023/04/03 06:14:58;;;;;;;;;11.33;9.00;;;;;11.05;54.05;15420.06;4869022;29;45555;-88
2023/04/03 06:17:23;;;;;;;;;13.00;10.00;;;;;10.86;53.90;16082.53;4880933;29;45453;-88
2023/04/03 06:19:49;;;;;;;;;10.67;10.33;;;;;11.05;54.05;15754.22;4892110;29;45463;-87
2023/04/03 06:22:15;;;;;;;;;10.00;8.33;;;;;11.05;53.86;16757.00;4877132;29;45539;-91
2023/04/03 06:24:41;;;;;;;;;9.67;8.00;;;;;10.57;53.99;16741.63;4885522;29;45522;-87
2023/04/03 06:27:07;;;;;;;;;13.00;12.00;;;;;11.04;53.70;16756.66;4876103;29;45309;-87
2023/04/03 06:29:32;;;;;;;;;12.00;9.00;;;;;11.05;53.54;17091.25;4862694;29;48151;-85
2023/04/03 06:31:58;;;;;;;;;19.00;10.33;;;;;10.67;53.56;17078.94;4873682;29;45547;-91
2023/04/03 06:34:23;;;;;;;;;11.00;11.00;;;;;10.11;53.93;17394.44;4885520;29;45458;-90
2023/04/03 06:36:50;;;;;;;;;10.67;9.67;;;;;10.72;53.68;17080.63;4892478;29;45767;-89
2023/04/03 06:39:20;;;;;;;;;12.00;10.67;;;;;10.39;53.62;17737.53;4897462;29;47163;-89
2023/04/03 06:41:45;;;;;;;;;9.67;9.00;;;;;10.28;54.08;17400.19;4875102;29;45654;-89
2023/04/03 06:44:12;;;;;;;;;11.67;10.00;;;;;11.10;53.86;17092.75;4883891;29;45343;-88
2023/04/03 06:46:39;;;;;;;;;12.33;12.00;;;;;10.35;53.49;17402.56;4896561;29;46573;-93
2023/04/03 06:49:07;;;;;;;;;13.00;11.00;;;;;10.33;53.66;17401.88;4905854;28;45685;-88
2023/04/03 06:51:33;;;;;;;;;10.00;10.00;;;;;10.90;53.25;17420.66;4939531;28;45376;-88
2023/04/03 06:53:59;;;;;;;;;12.33;12.00;;;;;10.85;53.47;18087.25;4937942;28;46476;-92
2023/04/03 06:56:58;;;;;;;;;12.00;12.00;;;;;11.19;53.45;17764.69;4944424;23;45326;-88
2023/04/03 06:59:27;;;;;;;;;9.00;9.00;;;;;11.22;53.15;18099.81;4901816;29;46455;-89
2023/04/03 07:01:53;;;;;;;;;12.00;11.67;;;;;9.91;52.74;18389.03;4900526;29;45568;-86
2023/04/03 07:04:33;;;;;;;;;12.00;10.67;;;;;10.71;52.95;18416.88;4901413;29;45401;-89
2023/04/03 07:07:05;;;;;;;;;13.00;12.67;;;;;10.02;52.97;18726.78;4902248;29;45346;-90
2023/04/03 07:09:47;;;;;;;;;11.67;10.67;;;;;10.41;52.92;19408.50;4902791;28;46962;-90
2023/04/03 07:12:35;;;;;;;;;9.67;9.33;;;;;11.32;53.02;19106.97;4898964;29;45327;-90
2023/04/03 07:15:00;;;;;;;;;10.67;10.00;;;;;10.86;52.77;18756.16;4900309;29;45549;-89
2023/04/03 07:19:53;;;;;;;;;10.33;10.00;;;;;11.39;52.89;18440.50;4921908;28;45985;-94
2023/04/03 07:22:18;;;;;;;;;12.33;9.67;;;;;11.40;52.75;18775.47;4924148;28;45329;-92
2023/04/03 07:24:44;;;;;;;;;8.00;8.00;;;;;11.45;52.96;18442.28;4922596;28;45432;-92
2023/04/03 07:27:12;;;;;;;;;9.33;9.33;;;;;11.21;52.91;18434.09;4922143;28;45446;-92
2023/04/03 07:29:38;;;;;;;;;12.00;10.00;;;;;11.53;52.91;18110.50;4917805;28;45340;-92
2023/04/03 07:32:05;;;;;;;;;8.67;8.67;;;;;11.58;53.08;17777.59;4921570;28;45496;-91
2023/04/03 07:34:32;;;;;;;;;14.67;9.00;;;;;11.62;52.99;17778.97;4918353;28;45485;-93
2023/04/03 07:36:58;;;;;;;;;12.67;9.67;;;;;11.63;52.92;17779.31;4922220;28;45424;-92
2023/04/03 07:39:23;;;;;;;;;10.00;9.00;;;;;11.28;52.75;18436.59;4923578;28;46332;-93
2023/04/03 07:41:48;;;;;;;;;8.33;8.33;;;;;11.37;52.67;18105.06;4920993;28;45442;-92
2023/04/03 07:44:14;;;;;;;;;9.00;9.00;;;;;11.54;53.16;18110.84;4919586;28;45533;-90
2023/04/03 07:46:40;;;;;;;;;9.33;8.00;;;;;11.77;52.97;17449.28;4921451;28;45413;-93
2023/04/03 07:49:06;;;;;;;;;10.00;10.00;;;;;11.81;52.79;17450.63;4919053;28;47343;-92
2023/04/03 07:51:32;;;;;;;;;9.00;9.00;;;;;11.85;52.74;17451.97;4939286;28;45398;-94
2023/04/03 07:53:58;;;;;;;;;10.00;9.00;;;;;11.43;52.40;17772.44;4924578;28;45282;-94
2023/04/03 07:56:24;;;;;;;;;7.00;7.00;;;;;11.77;52.54;17449.28;4910874;28;45319;-93
2023/04/03 07:58:50;;;;;;;;;12.67;9.67;;;;;11.62;52.41;17444.34;4905369;29;47248;-92
2023/04/03 08:01:16;;;;;;;;;9.33;8.00;;;;;11.93;52.77;17119.75;4906106;29;45302;-93
2023/04/03 08:03:41;;;;;;;;;11.33;9.67;;;;;11.86;53.00;16782.88;4940245;28;45491;-94
2023/04/03 08:06:08;;;;;;;;;7.00;7.00;;;;;12.01;52.56;16452.91;4928455;28;45353;-94
2023/04/03 08:08:35;;;;;;;;;10.67;9.00;;;;;12.15;51.61;18466.66;4922569;28;48028;-92
2023/04/03 08:11:02;;;;;;;;;11.00;6.33;;;;;12.00;52.02;17456.91;4924305;28;45358;-92
2023/04/03 08:13:28;;;;;;;;;8.00;8.00;;;;;11.84;51.87;17786.56;4922570;28;45398;-93
2023/04/03 08:15:55;;;;;;;;;8.33;8.33;;;;;12.16;51.54;19137.22;4920680;28;45260;-93
2023/04/03 08:18:24;;;;;;;;;5.00;5.00;;;;;12.19;51.27;19138.31;4921644;28;47402;-93
2023/04/03 08:20:49;;;;;;;;;6.00;6.00;;;;;12.26;51.77;18470.56;4921149;28;45488;-87
2023/04/03 08:23:16;;;;;;;;;9.33;9.33;;;;;12.01;51.79;18126.94;4920105;28;45369;-87
2023/04/03 08:25:42;;;;;;;;;7.33;7.00;;;;;12.35;51.77;18138.50;4919118;28;45428;-87
2023/04/03 08:28:09;;;;;;;;;9.00;9.00;;;;;12.50;52.03;17473.34;4920149;28;45414;-87
2023/04/03 08:30:34;;;;;;;;;7.00;5.00;;;;;12.36;52.06;17468.94;4918694;28;45265;-87
2023/04/03 08:33:01;;;;;;;;;4.67;4.67;;;;;12.50;51.73;17473.53;4918777;28;45509;-87
2023/04/03 08:35:27;;;;;;;;;8.33;8.33;;;;;12.59;51.60;18146.75;4919257;28;45509;-87
2023/04/03 08:37:52;;;;;;;;;6.67;6.67;;;;;12.51;50.91;19149.72;4920644;28;45513;-87
2023/04/03 08:40:17;;;;;;;;;4.33;4.33;;;;;12.63;50.18;21166.28;4920159;28;45353;-87
2023/04/03 08:42:58;;;;;;;;;4.67;3.33;;;;;12.71;50.60;21169.47;4918966;28;45382;-87
2023/04/03 08:45:49;;;;;;;;;3.00;3.00;;;;;12.71;50.95;20833.78;4918912;28;45564;-87
2023/04/03 08:48:35;;;;;;;;;3.67;3.67;;;;;12.45;50.64;21494.66;4918994;28;46485;-87
2023/04/03 08:51:14;;;;;;;;;4.33;4.33;;;;;12.74;50.74;21506.03;4920046;28;45748;-87
2023/04/03 08:53:46;;;;;;;;;1.67;1.67;;;;;12.45;50.32;22501.25;4919698;28;45386;-87
2023/04/03 08:56:14;;;;;;;;;7.33;3.67;;;;;12.45;50.56;22501.25;4919925;28;45488;-87
2023/04/03 08:58:52;;;;;;;;;3.33;3.33;;;;;12.62;50.56;21836.88;4918434;28;46921;-87
2023/04/03 09:01:35;;;;;;;;;3.67;3.67;;;;;12.52;48.50;26196.38;4919666;28;45283;-88
2023/04/03 09:04:02;;;;;;;;;3.33;3.00;;;;;12.66;49.09;26539.06;4938800;28;45423;-87
2023/04/03 09:06:34;;;;;;;;;3.00;3.00;;;;;12.62;49.44;26201.22;4934382;28;45557;-87
2023/04/03 09:09:12;;;;;;;;;2.67;2.33;;;;;12.82;49.42;25874.63;4918933;28;48343;-87
2023/04/03 09:11:54;;;;;;;;;2.33;2.33;;;;;12.62;49.56;25865.31;4918477;28;46149;-87
2023/04/03 09:14:37;;;;;;;;;4.67;2.67;;;;;12.78;49.67;26544.97;4918131;28;45322;-88
2023/04/03 09:17:10;;;;;;;;;3.33;3.33;;;;;12.78;49.58;26544.72;4900965;28;45364;-87
2023/04/03 09:19:42;;;;;;;;;3.67;3.67;;;;;12.88;48.28;28903.13;4899756;29;48578;-93
2023/04/03 09:22:19;;;;;;;;;4.00;2.67;;;;;12.92;48.98;28568.66;4905944;29;45357;-94
2023/04/03 09:24:50;;;;;;;;;2.67;2.67;;;;;12.72;49.70;27214.06;4907102;28;45591;-93
2023/04/03 09:27:15;;;;;;;;;3.67;2.67;;;;;12.85;49.58;27220.31;4924953;28;45476;-92
2023/04/03 09:29:47;;;;;;;;;3.33;2.33;;;;;12.96;49.55;26889.41;4924543;28;45280;-94
2023/04/03 09:32:28;;;;;;;;;3.00;3.00;;;;;12.64;48.72;29562.78;4925425;28;45345;-94
2023/04/03 09:35:01;;;;;;;;;2.67;2.67;;;;;12.82;48.71;29908.53;4926026;28;45365;-93
2023/04/03 09:37:35;;;;;;;;;2.67;2.67;;;;;13.09;48.79;29923.25;4929600;28;45448;-94
2023/04/03 09:40:00;;;;;;;;;4.67;3.67;;;;;12.92;48.09;31961.47;4921168;28;47686;-93
2023/04/03 09:42:26;;;;;;;;;3.00;3.00;;;;;13.05;48.06;31361.53;4920897;28;45847;-94
2023/04/03 09:45:02;;;;;;;;;4.33;4.33;;;;;13.27;48.52;30942.38;4920463;28;45473;-94
2023/04/03 09:47:28;;;;;;;;;1.00;1.00;;;;;13.34;48.27;30946.34;4921393;28;45472;-94
2023/04/03 09:50:12;;;;;;;;;2.00;2.00;;;;;13.22;48.50;29929.81;4920992;28;45558;-94
2023/04/03 09:52:39;;;;;;;;;1.33;0.67;;;;;13.56;48.60;28601.13;4921103;28;45307;-93
2023/04/03 09:55:29;;;;;;;;;2.00;2.00;;;;;13.75;48.12;26927.81;4920262;28;45309;-93
2023/04/03 09:58:00;;;;;;;;;2.00;2.00;;;;;14.25;48.25;25941.44;4914931;28;45331;-94
2023/04/03 10:00:32;;;;;;;;;2.67;2.67;;;;;14.23;47.34;27961.50;4924203;28;46646;-94
2023/04/03 10:02:58;;;;;;;;;5.33;3.00;;;;;14.38;47.91;26621.16;4923081;28;45348;-94
2023/04/03 10:05:36;;;;;;;;;4.00;4.00;;;;;14.54;47.74;26966.03;4927018;28;45433;-93
2023/04/03 10:08:11;;;;;;;;;5.00;5.00;;;;;15.10;45.09;30367.91;4945758;28;45428;-94
2023/04/03 10:10:37;;;;;;;;;2.00;2.00;;;;;15.12;45.26;32080.91;4925973;28;47555;-95
2023/04/03 10:13:23;;;;;;;;;2.33;2.33;;;;;15.79;45.52;30510.84;4925193;28;45440;-95
2023/04/03 10:16:01;;;;;;;;;2.00;2.00;;;;;16.17;43.04;42905.25;4923501;28;45409;-96
2023/04/03 10:18:44;;;;;;;;;3.67;2.00;;;;;16.54;41.97;46345.03;4924207;28;45378;-94
2023/04/03 10:21:48;;;;;;;;;2.67;1.33;;;;;16.91;42.36;46233.69;4926665;28;45343;-95
2023/04/03 10:24:27;;;;;;;;;4.67;2.00;;;;;17.23;40.57;52263.97;4919926;28;45424;-95
2023/04/03 10:27:10;;;;;;;;;2.33;2.33;;;;;17.37;40.72;53923.88;4921415;28;45875;-95
2023/04/03 10:29:39;;;;;;;;;2.00;2.00;;;;;17.84;41.88;51998.28;4922790;28;45701;-95
2023/04/03 10:33:00;;;;;;;;;2.67;2.67;;;;;18.16;39.22;56949.72;4922476;28;48307;-94
2023/04/03 10:36:24;;;;;;;;;1.67;1.67;;;;;18.55;38.54;58542.19;4842686;29;45683;-95
2023/04/03 10:39:01;;;;;;;;;1.67;1.67;;;;;18.90;36.45;62063.44;4776246;29;45366;-95
2023/04/03 10:41:51;;;;;;;;;2.00;2.00;;;;;19.24;36.67;62818.97;4775672;29;45340;-95
2023/04/03 10:44:29;;;;;;;;;4.00;2.33;;;;;19.61;38.73;62392.09;4759870;29;46264;-95
2023/04/03 10:47:19;;;;;;;;;2.00;2.00;;;;;20.03;37.01;63811.53;4772104;29;45524;-96
2023/04/03 10:50:10;;;;;;;;;2.00;2.00;;;;;20.05;37.61;63851.28;4749754;29;45623;-95
2023/04/03 10:52:47;;;;;;;;;1.33;1.33;;;;;20.63;35.13;65589.19;4760675;29;45578;-95
2023/04/03 10:55:12;;;;;;;;;3.25;2.00;;;;;21.32;34.15;67019.94;4756852;29;46080;-95
2023/04/03 10:57:40;;;;;;;;;2.00;2.00;;;;;21.71;34.49;67462.66;4771328;29;46330;-95
2023/04/03 11:00:19;;;;;;;;;3.25;3.00;;;;;22.08;32.34;67991.25;4756385;29;45454;-96
2023/04/03 11:02:57;;;;;;;;;1.00;1.00;;;;;22.55;32.63;68317.91;4766922;29;45357;-96
2023/04/03 11:05:34;;;;;;;;;2.00;2.00;;;;;23.02;32.64;68473.34;4778689;29;46294;-95
2023/04/03 11:08:05;;;;;;;;;1.25;1.25;;;;;23.38;31.74;68712.16;4777751;29;45481;-94
2023/04/03 11:10:41;;;;;;;;;1.00;1.00;;;;;23.66;32.22;68909.34;4769407;29;45455;-93
2023/04/03 11:13:23;;;;;;;;;2.25;2.25;;;;;23.85;30.51;69150.06;4849922;29;45420;-95
2023/04/03 11:15:51;;;;;;;;;1.00;1.00;;;;;24.21;31.70;69170.66;4893725;29;45576;-95
2023/04/03 11:18:27;;;;;;;;;3.00;2.00;;;;;24.44;28.95;69302.84;4915170;28;45335;-96
2023/04/03 11:21:16;;;;;;;;;3.00;2.00;;;;;24.65;28.59;69359.13;4907943;28;45460;-96
2023/04/03 11:23:41;;;;;;;;;1.50;1.50;;;;;24.88;28.83;69385.34;4923294;28;45483;-96
2023/04/03 11:26:14;;;;;;;;;1.50;1.50;;;;;24.88;29.82;69480.63;4922780;28;48161;-94
2023/04/03 11:28:41;;;;;;;;;1.00;1.00;;;;;25.05;28.97;69435.97;4925452;28;45888;-96
2023/04/03 11:31:28;;;;;;;;;3.50;1.25;;;;;25.25;27.59;69407.78;4922212;28;45405;-96
2023/04/03 11:34:16;;;;;;;;;2.00;1.00;;;;;25.40;28.76;69492.16;4926288;28;45468;-96
2023/04/03 11:36:48;;;;;;;;;1.75;1.75;;;;;25.12;27.92;69372.75;4925759;28;46353;-96
2023/04/03 11:39:38;;;;;;;;;1.00;1.00;;;;;25.42;24.79;69256.88;4919648;28;45476;-95
2023/04/03 11:42:34;;;;;;;;;1.00;1.00;;;;;25.37;24.16;69272.59;4914245;28;45397;-96
2023/04/03 11:45:50;;;;;;;;;0.00;0.00;;;;;25.41;26.28;69330.91;4916273;28;45501;-94
2023/04/03 11:48:20;;;;;;;;;0.00;0.00;;;;;25.58;28.27;69440.50;4870362;29;45477;-94
2023/04/03 11:50:46;;;;;;;;;0.50;0.50;;;;;25.67;27.14;69432.28;4879645;29;45498;-94
2023/04/03 11:53:11;;;;;;;;;1.33;1.33;;;;;25.78;27.50;69433.97;4868567;29;45417;-94
2023/04/03 11:55:49;;;;;;;;;1.00;1.00;;;;;25.88;26.25;69375.44;4876469;29;45619;-96
2023/04/03 11:58:18;;;;;;;;;0.00;0.00;;;;;26.02;27.39;69464.09;4875797;29;46742;-94
2023/04/03 16:01:33;;;;;;;;;1.00;1.00;;;;;19.39;30.98;69017.31;5373802;23;46398;-87
2023/04/03 16:03:58;;;;;;;;;2.00;1.00;;;;;18.89;31.41;69097.75;4943101;28;45396;-84
2023/04/03 16:06:25;;;;;;;;;1.00;1.00;;;;;19.45;31.56;68996.44;4940934;28;45963;-83
2023/04/03 16:08:51;;;;;;;;;1.00;1.00;;;;;19.38;31.36;68997.34;4940154;28;45457;-81
2023/04/03 16:11:16;;;;;;;;;1.00;1.00;;;;;19.27;31.25;68997.06;4940583;28;47221;-90
2023/04/03 16:13:41;;;;;;;;;2.00;2.00;;;;;19.10;31.14;69053.09;4943354;28;45420;-85
2023/04/03 16:16:07;;;;;;;;;2.00;2.00;;;;;18.89;31.67;68959.00;4942191;28;45528;-85
2023/04/03 16:18:34;;;;;;;;;1.00;1.00;;;;;19.05;31.85;69012.28;4940445;28;45405;-85
2023/04/03 16:21:00;;;;;;;;;1.00;1.00;;;;;18.87;32.05;68945.31;4923261;28;47123;-84
2023/04/03 16:23:25;;;;;;;;;0.00;0.00;;;;;18.93;31.94;68952.44;4934599;28;45466;-87
2023/04/03 16:25:50;;;;;;;;;0.00;0.00;;;;;18.91;32.09;68995.63;4941690;28;45723;-82
2023/04/03 16:28:17;;;;;;;;;0.00;0.00;;;;;18.88;31.85;68952.44;4932825;28;45266;-82
2023/04/03 16:30:45;;;;;;;;;0.00;0.00;;;;;18.84;32.07;68973.88;4929004;28;46385;-81
2023/04/03 16:33:11;;;;;;;;;1.67;1.00;;;;;18.80;32.37;68963.75;4926794;28;45441;-81
2023/04/03 16:35:37;;;;;;;;;0.00;0.00;;;;;18.51;32.13;68939.06;4930390;28;45504;-81
2023/04/03 16:38:03;;;;;;;;;0.33;0.33;;;;;18.70;32.12;68957.78;4926568;28;45504;-81
2023/04/03 16:40:29;;;;;;;;;0.67;0.67;;;;;18.65;32.35;68970.59;4924519;28;45728;-81
2023/04/03 16:42:54;;;;;;;;;2.00;0.67;;;;;18.56;32.57;68902.16;4935304;28;45401;-81
2023/04/03 16:45:20;;;;;;;;;1.00;1.00;;;;;18.38;32.39;68931.63;4936614;28;45373;-81
2023/04/03 16:47:45;;;;;;;;;0.00;0.00;;;;;18.47;32.50;68971.19;4939156;28;45286;-82
2023/04/03 16:50:11;;;;;;;;;0.00;0.00;;;;;18.28;32.45;68933.69;4932864;28;47809;-81
2023/04/03 16:52:36;;;;;;;;;1.00;1.00;;;;;18.39;32.90;68953.63;4938471;28;45351;-81
2023/04/03 16:55:02;;;;;;;;;0.67;0.67;;;;;18.14;32.63;68906.94;4938743;28;45355;-82
2023/04/03 16:57:27;;;;;;;;;1.00;1.00;;;;;18.20;32.55;68905.44;4937196;28;45345;-81
2023/04/03 16:59:53;;;;;;;;;0.67;0.33;;;;;18.08;32.92;68891.19;4930593;28;46430;-81
2023/04/03 17:02:20;;;;;;;;;1.00;1.00;;;;;18.20;32.56;68923.59;4938154;28;45531;-80
2023/04/03 17:04:46;;;;;;;;;0.00;0.00;;;;;18.12;32.57;68901.28;4933703;28;45511;-79
2023/04/03 17:07:11;;;;;;;;;0.67;0.33;;;;;17.90;33.12;68982.72;4938725;28;45397;-81
2023/04/03 17:09:37;;;;;;;;;0.00;0.00;;;;;17.88;32.87;68897.41;4937448;28;45452;-79
2023/04/03 17:12:03;;;;;;;;;1.00;1.00;;;;;17.94;33.00;68875.13;4938051;28;45447;-79
2023/04/03 17:14:29;;;;;;;;;1.00;1.00;;;;;17.79;33.08;68876.56;4936621;28;45481;-85
2023/04/03 17:16:54;;;;;;;;;0.00;0.00;;;;;17.89;33.55;68834.41;4929778;28;45640;-88
2023/04/03 17:19:26;;;;;;;;;1.00;1.00;;;;;17.85;33.41;68800.22;4935733;28;46919;-90
2023/04/03 17:21:52;;;;;;;;;0.00;0.00;;;;;17.81;33.64;68897.09;4936382;28;45536;-85
2023/04/03 17:24:17;;;;;;;;;0.33;0.33;;;;;17.42;33.66;68871.19;4933628;28;45349;-90
2023/04/03 17:27:02;;;;;;;;;2.00;2.00;;;;;17.48;33.39;68872.97;4931627;28;45647;-92
2023/04/03 17:29:27;;;;;;;;;1.33;1.33;;;;;17.60;33.70;68843.84;4947518;23;45488;-81
2023/04/03 17:31:53;;;;;;;;;1.00;1.00;;;;;17.42;33.70;68871.19;4935558;28;45478;-81
2023/04/03 17:34:18;;;;;;;;;2.00;2.00;;;;;17.43;33.96;68853.66;4937564;28;45579;-82
2023/04/03 17:36:43;;;;;;;;;0.33;0.33;;;;;17.30;34.27;68843.53;4938030;28;45400;-82
2023/04/03 17:39:09;;;;;;;;;3.00;1.00;;;;;17.36;34.08;68856.00;4933629;28;46493;-82
2023/04/03 17:41:34;;;;;;;;;1.67;1.67;;;;;17.32;33.96;68826.59;4930320;28;45540;-86
2023/04/03 17:44:00;;;;;;;;;1.00;1.00;;;;;17.09;34.06;68819.13;4937089;28;45938;-84
2023/04/03 17:46:26;;;;;;;;;0.67;0.67;;;;;16.99;34.39;68818.53;4929817;28;45892;-84
2023/04/03 17:48:51;;;;;;;;;1.00;1.00;;;;;17.01;34.33;68780.84;4936857;28;46922;-84
2023/04/03 17:51:21;;;;;;;;;1.00;1.00;;;;;17.08;34.48;68826.56;4936999;28;45319;-84
2023/04/03 17:53:47;;;;;;;;;1.00;1.00;;;;;17.04;34.89;68815.88;4935432;28;45412;-92
2023/04/03 17:56:23;;;;;;;;;1.33;1.00;;;;;16.33;35.02;68712.47;4928498;28;45647;-90
2023/04/03 17:58:50;;;;;;;;;1.00;1.00;;;;;16.98;34.81;68782.03;4931514;28;47038;-89
2023/04/03 18:01:18;;;;;;;;;1.00;1.00;;;;;16.95;34.62;68816.47;4927893;28;45829;-90
2023/04/03 18:03:44;;;;;;;;;1.00;1.00;;;;;16.91;34.63;68797.75;4937453;28;45369;-89
2023/04/03 18:06:12;;;;;;;;;1.00;1.00;;;;;16.88;34.73;68800.72;4935854;28;45484;-89
2023/04/03 18:08:48;;;;;;;;;2.00;0.33;;;;;16.86;34.89;68787.06;4933599;28;46293;-89
2023/04/03 18:11:15;;;;;;;;;0.67;0.67;;;;;16.78;34.77;68794.13;4935653;28;46110;-88
2023/04/03 18:13:41;;;;;;;;;1.00;1.00;;;;;16.43;34.95;68899.91;4936288;28;45600;-88
2023/04/03 18:16:08;;;;;;;;;1.00;1.00;;;;;16.76;34.74;68781.06;4933974;28;45701;-88
2023/04/03 18:18:34;;;;;;;;;1.00;1.00;;;;;16.48;34.76;68716.34;4936266;28;48376;-88
2023/04/03 18:20:59;;;;;;;;;3.00;3.00;;;;;16.41;34.45;68729.38;4935900;28;45700;-91
2023/04/03 18:23:28;;;;;;;;;2.00;2.00;;;;;16.42;34.79;68757.28;4938039;28;46516;-89
2023/04/03 18:25:54;;;;;;;;;2.00;2.00;;;;;16.39;35.11;68735.03;4933552;28;45491;-84
2023/04/03 18:28:20;;;;;;;;;1.00;1.00;;;;;16.34;35.38;68787.78;4938625;28;46277;-84
2023/04/03 18:30:45;;;;;;;;;2.00;2.00;;;;;16.07;35.24;68706.19;4932554;28;45633;-84
2023/04/03 18:33:11;;;;;;;;;1.00;1.00;;;;;15.87;35.40;68693.69;4932130;28;45645;-85
2023/04/03 18:35:36;;;;;;;;;1.00;1.00;;;;;16.27;35.51;68692.00;4927100;28;45467;-85
2023/04/03 18:38:02;;;;;;;;;4.33;4.33;;;;;15.93;35.63;68700.81;4938895;28;46231;-85
2023/04/03 18:40:30;;;;;;;;;0.33;0.00;;;;;16.13;35.67;68766.69;4944354;28;45469;-85
2023/04/03 18:42:56;;;;;;;;;1.00;1.00;;;;;16.16;35.48;68666.19;4944918;28;45364;-85
2023/04/03 18:45:22;;;;;;;;;2.00;2.00;;;;;16.15;35.73;68745.03;4940955;28;45420;-85
2023/04/03 18:47:48;;;;;;;;;2.00;2.00;;;;;16.13;35.75;68707.38;4938399;28;45598;-85
2023/04/03 18:50:13;;;;;;;;;5.00;3.67;;;;;16.10;35.67;68741.75;4928128;28;45733;-86
2023/04/03 18:52:39;;;;;;;;;1.00;1.00;;;;;15.78;36.00;68694.25;4935772;28;45557;-83
2023/04/03 18:55:05;;;;;;;;;1.00;1.00;;;;;15.62;35.84;68656.56;4935870;28;45691;-84
2023/04/03 18:57:30;;;;;;;;;1.00;1.00;;;;;15.99;36.31;68686.63;4939272;28;45525;-85
2023/04/03 18:59:56;;;;;;;;;1.00;1.00;;;;;15.69;36.44;68688.88;4932162;28;45408;-84
2023/04/03 19:02:24;;;;;;;;;3.00;3.00;;;;;15.94;36.64;68701.41;4933543;28;45572;-86
2023/04/03 19:04:51;;;;;;;;;4.00;4.00;;;;;15.89;36.56;68692.81;4936530;28;45476;-82
2023/04/03 19:07:17;;;;;;;;;1.00;1.00;;;;;15.55;36.88;68678.16;4937123;28;46297;-82
2023/04/03 19:09:42;;;;;;;;;2.00;2.00;;;;;15.52;36.80;68679.31;4934921;28;45352;-87
2023/04/03 19:12:08;;;;;;;;;1.33;1.33;;;;;15.72;37.03;68711.13;4931063;28;46036;-87
2023/04/03 19:14:33;;;;;;;;;2.00;2.00;;;;;15.68;37.15;68647.09;4932558;28;45435;-87
2023/04/03 19:16:59;;;;;;;;;4.00;3.00;;;;;15.46;37.13;68650.88;4918073;28;47144;-87
2023/04/03 19:19:24;;;;;;;;;2.00;2.00;;;;;15.69;37.48;68691.53;4936215;28;45523;-88
2023/04/03 19:21:50;;;;;;;;;1.00;1.00;;;;;15.68;37.08;68701.00;4924803;28;45450;-96
2023/04/03 19:24:15;;;;;;;;;1.00;1.00;;;;;15.67;37.39;68595.88;4963026;23;45377;-89
2023/04/03 19:26:41;;;;;;;;;3.00;1.33;;;;;15.37;37.40;68652.03;4937785;28;45700;-88
2023/04/03 19:29:07;;;;;;;;;1.00;1.00;;;;;14.87;37.35;68631.13;4938457;28;46271;-89
2023/04/03 19:31:33;;;;;;;;;2.67;2.67;;;;;14.73;37.71;68513.34;4938741;28;45751;-86
2023/04/03 19:33:59;;;;;;;;;5.00;3.00;;;;;15.52;37.46;68713.97;4938724;28;45510;-85
2023/04/03 19:36:25;;;;;;;;;2.33;1.33;;;;;15.53;38.04;68715.75;4937469;28;46091;-87
2023/04/03 19:38:51;;;;;;;;;2.00;2.00;;;;;15.26;37.77;68641.03;4934760;28;45698;-88
2023/04/03 19:41:21;;;;;;;;;4.00;4.00;;;;;15.37;37.97;68870.50;4937402;28;45387;-86
2023/04/03 19:43:49;;;;;;;;;3.33;2.67;;;;;15.39;38.02;68673.06;4934282;28;45460;-84
2023/04/03 19:46:17;;;;;;;;;3.33;2.33;;;;;15.23;37.85;68670.03;4938311;28;47175;-87
2023/04/03 19:48:42;;;;;;;;;2.00;2.00;;;;;15.19;37.99;68675.94;4939562;28;45342;-88
2023/04/03 19:51:08;;;;;;;;;3.00;3.00;;;;;15.33;37.96;68665.91;4938518;28;45417;-85
2023/04/03 19:53:33;;;;;;;;;3.00;3.00;;;;;15.30;38.35;68670.34;4939093;28;45742;-87
2023/04/03 19:55:59;;;;;;;;;4.33;4.33;;;;;15.10;38.48;68641.88;4939035;28;45421;-84
2023/04/03 19:58:28;;;;;;;;;1.00;1.00;;;;;15.16;38.28;68633.00;4938014;28;45508;-89
2023/04/03 20:00:56;;;;;;;;;4.00;2.00;;;;;15.19;38.93;68627.97;4938369;28;45369;-89
2023/04/03 20:03:22;;;;;;;;;3.33;3.33;;;;;15.16;38.65;68656.38;4938688;28;46393;-88
2023/04/03 20:05:47;;;;;;;;;4.00;4.00;;;;;14.96;39.09;68721.69;4937617;28;45987;-86
2023/04/03 20:08:13;;;;;;;;;3.00;1.67;;;;;14.78;39.39;68593.81;4938113;28;45530;-88
2023/04/03 20:11:00;;;;;;;;;3.33;3.33;;;;;14.91;39.56;68648.56;4937585;28;45564;-88
2023/04/03 20:13:26;;;;;;;;;2.00;0.33;;;;;13.98;39.88;68527.16;4937362;28;45487;-82
2023/04/03 20:15:52;;;;;;;;;6.00;5.00;;;;;13.70;39.79;68556.25;4931852;28;47117;-83
2023/04/03 20:28:02;;;;;;;;;4.67;4.00;;;;;14.73;41.16;68609.16;4917709;28;45526;-84
2023/04/03 20:30:46;;;;;;;;;3.00;3.00;;;;;14.70;40.40;68435.25;4931775;28;45583;-83
2023/04/03 20:33:12;;;;;;;;;2.00;1.33;;;;;14.05;40.55;68754.09;4929076;28;45432;-84
2023/04/03 20:35:50;;;;;;;;;;;;;;;;;;;;;
2023/04/03 20:38:58;;;;;;;;;3.00;2.00;;;;;14.69;40.41;68652.31;4925861;28;75193;-84
2023/04/03 20:41:24;;;;;;;;;1.67;1.67;;;;;14.69;40.23;68657.63;4931420;28;45676;-84
2023/04/03 20:43:50;;;;;;;;;2.00;2.00;;;;;14.16;40.26;68498.03;4935622;28;45473;-84
2023/04/03 20:46:45;;;;;;;;;3.00;2.00;;;;;14.69;40.06;68588.44;4930863;28;45605;-83
2023/04/03 20:49:11;;;;;;;;;2.00;2.00;;;;;14.07;40.34;68557.06;4923487;28;46971;-82
2023/04/03 21:08:33;;;;;;;;;2.00;2.00;;;;;14.51;40.02;68607.53;4927301;28;46460;-82
2023/04/03 21:14:57;;;;;;;;;1.33;1.33;;;;;14.07;40.17;68509.22;4932337;28;45457;-84
2023/04/03 21:17:23;;;;;;;;;4.33;1.67;;;;;14.42;40.00;68535.66;4932175;28;45593;-84
2023/04/03 21:19:49;;;;;;;;;2.00;2.00;;;;;14.33;40.04;68560.16;4928139;28;45413;-84
2023/04/03 21:22:14;;;;;;;;;3.00;1.00;;;;;14.14;40.18;68544.13;4925559;28;46203;-84
2023/04/03 21:24:41;;;;;;;;;2.00;2.00;;;;;14.36;40.18;68559.00;4937118;28;45386;-84
2023/04/03 21:27:07;;;;;;;;;2.00;2.00;;;;;14.35;40.09;68562.53;4937898;28;45835;-84